sensor_id;sensor_type;location;lat;lon;timestamp;temperature;humidity
24730;DHT22;12832;52.392;13.066;2023-02-15T00:01:33;24.90;31.10
24730;DHT22;12832;52.392;13.066;2023-02-15T00:04:00;24.90;31.10
24730;DHT22;12832;52.392;13.066;2023-02-15T00:06:26;24.90;31.10
24730;DHT22;12832;52.392;13.066;2023-02-15T00:08:54;24.90;31.10
24730;DHT22;12832;52.392;13.066;2023-02-15T00:11:20;24.90;31.10
24730;DHT22;12832;52.392;13.066;2023-02-15T00:14:20;24.90;31.20
24730;DHT22;12832;52.392;13.066;2023-02-15T00:16:49;24.90;31.20
24730;DHT22;12832;52.392;13.066;2023-02-15T00:19:19;24.90;31.20
24730;DHT22;12832;52.392;13.066;2023-02-15T00:21:48;24.90;31.20
24730;DHT22;12832;52.392;13.066;2023-02-15T00:24:16;24.90;31.20
24730;DHT22;12832;52.392;13.066;2023-02-15T00:26:44;24.80;31.20
24730;DHT22;12832;52.392;13.066;2023-02-15T00:29:12;24.80;31.20
24730;DHT22;12832;52.392;13.066;2023-02-15T00:31:39;24.90;31.30
24730;DHT22;12832;52.392;13.066;2023-02-15T00:34:11;24.90;31.20
24730;DHT22;12832;52.392;13.066;2023-02-15T00:36:38;24.90;31.20
24730;DHT22;12832;52.392;13.066;2023-02-15T00:39:04;24.90;31.20
24730;DHT22;12832;52.392;13.066;2023-02-15T00:41:34;24.90;31.20
24730;DHT22;12832;52.392;13.066;2023-02-15T00:44:00;24.90;31.20
24730;DHT22;12832;52.392;13.066;2023-02-15T00:46:26;24.90;31.20
24730;DHT22;12832;52.392;13.066;2023-02-15T00:48:52;24.90;31.10
24730;DHT22;12832;52.392;13.066;2023-02-15T00:51:18;24.90;31.20
24730;DHT22;12832;52.392;13.066;2023-02-15T00:53:46;24.90;31.10
24730;DHT22;12832;52.392;13.066;2023-02-15T00:56:12;24.90;31.10
24730;DHT22;12832;52.392;13.066;2023-02-15T00:58:38;24.90;31.10
24730;DHT22;12832;52.392;13.066;2023-02-15T01:01:07;24.90;31.20
24730;DHT22;12832;52.392;13.066;2023-02-15T01:03:34;24.90;31.10
24730;DHT22;12832;52.392;13.066;2023-02-15T01:06:01;24.90;31.10
24730;DHT22;12832;52.392;13.066;2023-02-15T01:08:28;24.90;31.10
24730;DHT22;12832;52.392;13.066;2023-02-15T01:10:55;24.90;31.10
24730;DHT22;12832;52.392;13.066;2023-02-15T01:13:21;24.90;31.10
24730;DHT22;12832;52.392;13.066;2023-02-15T01:15:53;24.90;31.10
24730;DHT22;12832;52.392;13.066;2023-02-15T01:18:21;24.90;31.10
24730;DHT22;12832;52.392;13.066;2023-02-15T01:20:47;24.90;31.10
24730;DHT22;12832;52.392;13.066;2023-02-15T01:23:13;24.90;31.10
24730;DHT22;12832;52.392;13.066;2023-02-15T01:25:39;24.90;31.10
24730;DHT22;12832;52.392;13.066;2023-02-15T01:28:05;24.90;31.10
24730;DHT22;12832;52.392;13.066;2023-02-15T01:30:32;24.90;31.10
24730;DHT22;12832;52.392;13.066;2023-02-15T01:32:58;24.90;31.10
24730;DHT22;12832;52.392;13.066;2023-02-15T01:35:27;24.90;31.10
24730;DHT22;12832;52.392;13.066;2023-02-15T01:37:54;24.90;31.10
24730;DHT22;12832;52.392;13.066;2023-02-15T01:40:21;24.90;31.00
24730;DHT22;12832;52.392;13.066;2023-02-15T01:42:52;25.00;31.00
24730;DHT22;12832;52.392;13.066;2023-02-15T01:45:23;25.00;31.00
24730;DHT22;12832;52.392;13.066;2023-02-15T01:50:37;25.00;31.00
24730;DHT22;12832;52.392;13.066;2023-02-15T01:53:14;25.00;31.00
24730;DHT22;12832;52.392;13.066;2023-02-15T01:55:52;25.00;31.00
24730;DHT22;12832;52.392;13.066;2023-02-15T01:58:23;25.00;31.00
24730;DHT22;12832;52.392;13.066;2023-02-15T02:00:50;25.00;31.00
24730;DHT22;12832;52.392;13.066;2023-02-15T02:03:16;25.00;30.90
24730;DHT22;12832;52.392;13.066;2023-02-15T02:05:43;25.00;30.90
24730;DHT22;12832;52.392;13.066;2023-02-15T02:08:09;25.00;30.90
24730;DHT22;12832;52.392;13.066;2023-02-15T02:10:36;25.10;30.90
24730;DHT22;12832;52.392;13.066;2023-02-15T02:13:04;25.10;30.90
24730;DHT22;12832;52.392;13.066;2023-02-15T02:15:38;25.10;30.90
24730;DHT22;12832;52.392;13.066;2023-02-15T02:18:54;25.10;30.90
24730;DHT22;12832;52.392;13.066;2023-02-15T02:30:07;25.10;30.80
24730;DHT22;12832;52.392;13.066;2023-02-15T02:33:15;25.10;30.80
24730;DHT22;12832;52.392;13.066;2023-02-15T02:35:48;25.10;30.80
24730;DHT22;12832;52.392;13.066;2023-02-15T02:41:56;25.10;30.80
24730;DHT22;12832;52.392;13.066;2023-02-15T02:44:41;25.10;30.80
24730;DHT22;12832;52.392;13.066;2023-02-15T02:47:18;25.10;30.80
24730;DHT22;12832;52.392;13.066;2023-02-15T02:49:46;25.10;30.80
24730;DHT22;12832;52.392;13.066;2023-02-15T02:52:44;25.10;30.80
24730;DHT22;12832;52.392;13.066;2023-02-15T02:55:51;25.20;30.80
24730;DHT22;12832;52.392;13.066;2023-02-15T02:58:36;25.10;30.80
24730;DHT22;12832;52.392;13.066;2023-02-15T03:01:13;25.10;30.80
24730;DHT22;12832;52.392;13.066;2023-02-15T03:04:08;25.10;30.80
24730;DHT22;12832;52.392;13.066;2023-02-15T03:06:54;25.10;30.80
24730;DHT22;12832;52.392;13.066;2023-02-15T03:09:36;25.10;30.80
24730;DHT22;12832;52.392;13.066;2023-02-15T03:14:43;25.10;30.80
24730;DHT22;12832;52.392;13.066;2023-02-15T03:17:12;25.10;30.70
24730;DHT22;12832;52.392;13.066;2023-02-15T03:19:39;25.10;30.80
24730;DHT22;12832;52.392;13.066;2023-02-15T03:22:35;25.10;30.80
24730;DHT22;12832;52.392;13.066;2023-02-15T03:27:32;25.10;30.70
24730;DHT22;12832;52.392;13.066;2023-02-15T03:29:59;25.20;31.50
24730;DHT22;12832;52.392;13.066;2023-02-15T03:32:28;25.20;30.80
24730;DHT22;12832;52.392;13.066;2023-02-15T03:34:55;25.20;30.80
24730;DHT22;12832;52.392;13.066;2023-02-15T03:37:38;25.20;30.80
24730;DHT22;12832;52.392;13.066;2023-02-15T03:40:19;25.20;30.80
24730;DHT22;12832;52.392;13.066;2023-02-15T03:46:22;25.20;30.80
24730;DHT22;12832;52.392;13.066;2023-02-15T03:48:57;25.20;30.70
24730;DHT22;12832;52.392;13.066;2023-02-15T03:51:29;25.20;30.80
24730;DHT22;12832;52.392;13.066;2023-02-15T03:54:11;25.20;30.80
24730;DHT22;12832;52.392;13.066;2023-02-15T03:56:42;25.20;30.80
24730;DHT22;12832;52.392;13.066;2023-02-15T03:59:28;25.20;30.80
24730;DHT22;12832;52.392;13.066;2023-02-15T04:02:15;25.20;30.80
24730;DHT22;12832;52.392;13.066;2023-02-15T04:04:47;25.20;30.70
24730;DHT22;12832;52.392;13.066;2023-02-15T04:07:13;25.20;30.70
24730;DHT22;12832;52.392;13.066;2023-02-15T04:09:40;25.20;30.80
24730;DHT22;12832;52.392;13.066;2023-02-15T04:12:24;25.20;30.80
24730;DHT22;12832;52.392;13.066;2023-02-15T04:14:50;25.20;30.80
24730;DHT22;12832;52.392;13.066;2023-02-15T04:17:37;25.20;30.80
24730;DHT22;12832;52.392;13.066;2023-02-15T04:20:04;25.20;30.70
24730;DHT22;12832;52.392;13.066;2023-02-15T04:22:49;25.20;30.70
24730;DHT22;12832;52.392;13.066;2023-02-15T04:25:34;25.20;30.80
24730;DHT22;12832;52.392;13.066;2023-02-15T04:28:00;25.20;30.70
24730;DHT22;12832;52.392;13.066;2023-02-15T04:30:26;25.20;30.80
24730;DHT22;12832;52.392;13.066;2023-02-15T04:32:54;25.20;30.80
24730;DHT22;12832;52.392;13.066;2023-02-15T04:35:20;25.20;30.70
24730;DHT22;12832;52.392;13.066;2023-02-15T04:37:48;25.20;30.70
24730;DHT22;12832;52.392;13.066;2023-02-15T04:40:15;25.20;30.70
24730;DHT22;12832;52.392;13.066;2023-02-15T04:42:47;25.20;30.70
24730;DHT22;12832;52.392;13.066;2023-02-15T04:45:13;25.20;30.70
24730;DHT22;12832;52.392;13.066;2023-02-15T04:47:39;25.20;30.70
24730;DHT22;12832;52.392;13.066;2023-02-15T04:50:06;25.20;30.70
24730;DHT22;12832;52.392;13.066;2023-02-15T04:52:33;25.20;30.70
24730;DHT22;12832;52.392;13.066;2023-02-15T04:54:59;25.20;30.70
24730;DHT22;12832;52.392;13.066;2023-02-15T04:57:25;25.20;30.70
24730;DHT22;12832;52.392;13.066;2023-02-15T04:59:51;25.20;30.70
24730;DHT22;12832;52.392;13.066;2023-02-15T05:02:17;25.20;30.70
24730;DHT22;12832;52.392;13.066;2023-02-15T05:04:43;25.20;30.70
24730;DHT22;12832;52.392;13.066;2023-02-15T05:07:09;25.20;30.70
24730;DHT22;12832;52.392;13.066;2023-02-15T05:09:35;25.20;30.70
24730;DHT22;12832;52.392;13.066;2023-02-15T05:12:02;25.20;30.70
24730;DHT22;12832;52.392;13.066;2023-02-15T05:14:28;25.20;30.70
24730;DHT22;12832;52.392;13.066;2023-02-15T05:16:54;25.20;30.70
24730;DHT22;12832;52.392;13.066;2023-02-15T05:19:20;25.20;30.70
24730;DHT22;12832;52.392;13.066;2023-02-15T05:21:48;25.20;30.70
24730;DHT22;12832;52.392;13.066;2023-02-15T05:24:15;25.20;30.70
24730;DHT22;12832;52.392;13.066;2023-02-15T05:26:59;25.20;30.70
24730;DHT22;12832;52.392;13.066;2023-02-15T05:29:44;25.20;30.80
24730;DHT22;12832;52.392;13.066;2023-02-15T05:32:13;25.20;30.80
24730;DHT22;12832;52.392;13.066;2023-02-15T05:34:40;25.20;30.80
24730;DHT22;12832;52.392;13.066;2023-02-15T05:37:06;25.20;30.70
24730;DHT22;12832;52.392;13.066;2023-02-15T05:39:33;25.20;30.70
24730;DHT22;12832;52.392;13.066;2023-02-15T05:42:00;25.20;30.60
24730;DHT22;12832;52.392;13.066;2023-02-15T05:44:26;25.20;30.60
24730;DHT22;12832;52.392;13.066;2023-02-15T05:46:52;25.20;30.50
24730;DHT22;12832;52.392;13.066;2023-02-15T05:49:18;25.20;30.50
24730;DHT22;12832;52.392;13.066;2023-02-15T05:51:44;25.20;30.40
24730;DHT22;12832;52.392;13.066;2023-02-15T05:54:10;25.20;30.40
24730;DHT22;12832;52.392;13.066;2023-02-15T05:56:36;25.20;30.40
24730;DHT22;12832;52.392;13.066;2023-02-15T05:59:02;25.20;30.40
24730;DHT22;12832;52.392;13.066;2023-02-15T06:01:28;25.20;30.40
24730;DHT22;12832;52.392;13.066;2023-02-15T06:03:54;25.10;29.60
24730;DHT22;12832;52.392;13.066;2023-02-15T06:06:21;25.10;29.50
24730;DHT22;12832;52.392;13.066;2023-02-15T06:08:48;25.00;29.40
24730;DHT22;12832;52.392;13.066;2023-02-15T06:11:14;24.90;29.40
24730;DHT22;12832;52.392;13.066;2023-02-15T06:13:40;24.90;29.40
24730;DHT22;12832;52.392;13.066;2023-02-15T06:16:07;24.90;29.30
24730;DHT22;12832;52.392;13.066;2023-02-15T06:18:33;24.80;29.30
24730;DHT22;12832;52.392;13.066;2023-02-15T06:21:00;24.80;29.30
24730;DHT22;12832;52.392;13.066;2023-02-15T06:23:26;24.80;29.40
24730;DHT22;12832;52.392;13.066;2023-02-15T06:25:54;24.70;29.40
24730;DHT22;12832;52.392;13.066;2023-02-15T06:28:20;24.70;29.30
24730;DHT22;12832;52.392;13.066;2023-02-15T06:30:46;24.70;29.10
24730;DHT22;12832;52.392;13.066;2023-02-15T06:33:12;24.70;29.10
24730;DHT22;12832;52.392;13.066;2023-02-15T06:35:38;24.70;29.10
24730;DHT22;12832;52.392;13.066;2023-02-15T06:38:04;24.70;29.20
24730;DHT22;12832;52.392;13.066;2023-02-15T06:40:30;24.60;29.30
24730;DHT22;12832;52.392;13.066;2023-02-15T06:42:57;24.60;29.30
24730;DHT22;12832;52.392;13.066;2023-02-15T06:45:23;24.60;29.30
24730;DHT22;12832;52.392;13.066;2023-02-15T06:47:49;24.60;29.20
24730;DHT22;12832;52.392;13.066;2023-02-15T06:50:15;24.60;29.10
24730;DHT22;12832;52.392;13.066;2023-02-15T06:52:41;24.60;29.10
24730;DHT22;12832;52.392;13.066;2023-02-15T06:55:07;24.50;29.10
24730;DHT22;12832;52.392;13.066;2023-02-15T06:57:34;24.50;29.20
24730;DHT22;12832;52.392;13.066;2023-02-15T07:00:00;24.60;29.30
24730;DHT22;12832;52.392;13.066;2023-02-15T07:02:26;24.50;29.20
24730;DHT22;12832;52.392;13.066;2023-02-15T07:04:53;24.50;29.10
24730;DHT22;12832;52.392;13.066;2023-02-15T07:07:19;24.50;29.00
24730;DHT22;12832;52.392;13.066;2023-02-15T07:09:45;24.50;29.00
24730;DHT22;12832;52.392;13.066;2023-02-15T07:12:11;24.50;29.20
24730;DHT22;12832;52.392;13.066;2023-02-15T07:14:55;24.50;29.20
24730;DHT22;12832;52.392;13.066;2023-02-15T07:17:24;24.50;29.20
24730;DHT22;12832;52.392;13.066;2023-02-15T07:20:05;24.50;29.20
24730;DHT22;12832;52.392;13.066;2023-02-15T07:22:31;24.40;29.00
24730;DHT22;12832;52.392;13.066;2023-02-15T07:24:59;24.40;28.90
24730;DHT22;12832;52.392;13.066;2023-02-15T07:27:25;24.40;28.90
24730;DHT22;12832;52.392;13.066;2023-02-15T07:29:51;24.40;29.00
24730;DHT22;12832;52.392;13.066;2023-02-15T07:32:18;24.40;28.90
24730;DHT22;12832;52.392;13.066;2023-02-15T07:34:44;24.40;28.90
24730;DHT22;12832;52.392;13.066;2023-02-15T07:37:10;24.40;29.10
24730;DHT22;12832;52.392;13.066;2023-02-15T07:39:36;24.40;29.00
24730;DHT22;12832;52.392;13.066;2023-02-15T07:42:02;24.40;29.00
24730;DHT22;12832;52.392;13.066;2023-02-15T07:44:28;24.40;29.00
24730;DHT22;12832;52.392;13.066;2023-02-15T07:46:54;24.40;29.10
24730;DHT22;12832;52.392;13.066;2023-02-15T07:49:20;24.40;29.10
24730;DHT22;12832;52.392;13.066;2023-02-15T07:51:47;24.40;29.10
24730;DHT22;12832;52.392;13.066;2023-02-15T07:54:13;24.40;29.10
24730;DHT22;12832;52.392;13.066;2023-02-15T07:56:39;24.40;29.10
24730;DHT22;12832;52.392;13.066;2023-02-15T07:59:05;24.40;28.90
24730;DHT22;12832;52.392;13.066;2023-02-15T08:01:35;24.40;29.00
24730;DHT22;12832;52.392;13.066;2023-02-15T08:04:03;24.40;29.00
24730;DHT22;12832;52.392;13.066;2023-02-15T08:06:32;24.40;29.10
24730;DHT22;12832;52.392;13.066;2023-02-15T08:08:58;24.40;29.10
24730;DHT22;12832;52.392;13.066;2023-02-15T08:11:26;24.40;29.10
24730;DHT22;12832;52.392;13.066;2023-02-15T08:14:12;24.40;29.10
24730;DHT22;12832;52.392;13.066;2023-02-15T08:16:44;24.40;29.20
24730;DHT22;12832;52.392;13.066;2023-02-15T08:19:23;24.40;29.10
24730;DHT22;12832;52.392;13.066;2023-02-15T08:21:51;24.40;29.10
24730;DHT22;12832;52.392;13.066;2023-02-15T08:24:20;24.40;29.20
24730;DHT22;12832;52.392;13.066;2023-02-15T08:26:47;24.40;29.20
24730;DHT22;12832;52.392;13.066;2023-02-15T08:29:15;24.40;29.20
24730;DHT22;12832;52.392;13.066;2023-02-15T08:31:41;24.30;29.20
24730;DHT22;12832;52.392;13.066;2023-02-15T08:34:10;24.30;29.10
24730;DHT22;12832;52.392;13.066;2023-02-15T08:36:37;24.30;29.10
24730;DHT22;12832;52.392;13.066;2023-02-15T08:39:05;24.30;29.10
24730;DHT22;12832;52.392;13.066;2023-02-15T08:41:36;24.30;29.20
24730;DHT22;12832;52.392;13.066;2023-02-15T08:44:05;24.30;29.20
24730;DHT22;12832;52.392;13.066;2023-02-15T08:46:33;24.30;29.20
24730;DHT22;12832;52.392;13.066;2023-02-15T08:49:00;24.30;29.20
24730;DHT22;12832;52.392;13.066;2023-02-15T08:51:29;24.30;29.10
24730;DHT22;12832;52.392;13.066;2023-02-15T08:53:58;24.30;29.10
24730;DHT22;12832;52.392;13.066;2023-02-15T08:56:26;24.30;29.10
24730;DHT22;12832;52.392;13.066;2023-02-15T08:58:54;24.30;29.10
24730;DHT22;12832;52.392;13.066;2023-02-15T09:01:22;24.30;29.20
24730;DHT22;12832;52.392;13.066;2023-02-15T09:03:51;24.30;29.20
24730;DHT22;12832;52.392;13.066;2023-02-15T09:06:20;24.30;29.10
24730;DHT22;12832;52.392;13.066;2023-02-15T09:08:49;24.30;29.20
24730;DHT22;12832;52.392;13.066;2023-02-15T09:11:18;24.30;29.20
24730;DHT22;12832;52.392;13.066;2023-02-15T09:13:50;24.30;29.10
24730;DHT22;12832;52.392;13.066;2023-02-15T09:16:17;24.30;29.90
24730;DHT22;12832;52.392;13.066;2023-02-15T09:18:43;24.30;29.60
24730;DHT22;12832;52.392;13.066;2023-02-15T09:21:18;24.30;29.40
24730;DHT22;12832;52.392;13.066;2023-02-15T09:23:48;24.30;29.20
24730;DHT22;12832;52.392;13.066;2023-02-15T09:26:16;24.30;29.30
24730;DHT22;12832;52.392;13.066;2023-02-15T09:28:43;24.30;29.30
24730;DHT22;12832;52.392;13.066;2023-02-15T09:31:15;24.30;29.50
24730;DHT22;12832;52.392;13.066;2023-02-15T09:33:43;24.30;29.50
24730;DHT22;12832;52.392;13.066;2023-02-15T09:36:25;24.30;29.50
24730;DHT22;12832;52.392;13.066;2023-02-15T09:39:12;24.30;29.40
24730;DHT22;12832;52.392;13.066;2023-02-15T09:42:13;24.30;29.30
24730;DHT22;12832;52.392;13.066;2023-02-15T10:04:44;24.20;29.00
24730;DHT22;12832;52.392;13.066;2023-02-15T10:07:39;24.30;29.60
24730;DHT22;12832;52.392;13.066;2023-02-15T10:18:51;24.20;29.00
24730;DHT22;12832;52.392;13.066;2023-02-15T10:21:33;24.20;29.00
24730;DHT22;12832;52.392;13.066;2023-02-15T10:24:19;24.20;29.00
24730;DHT22;12832;52.392;13.066;2023-02-15T10:26:49;24.20;29.00
24730;DHT22;12832;52.392;13.066;2023-02-15T10:34:39;24.20;29.00
24730;DHT22;12832;52.392;13.066;2023-02-15T10:42:27;24.20;29.00
24730;DHT22;12832;52.392;13.066;2023-02-15T10:45:18;24.20;29.00
24730;DHT22;12832;52.392;13.066;2023-02-15T10:50:48;24.30;29.10
24730;DHT22;12832;52.392;13.066;2023-02-15T10:53:41;24.30;29.20
24730;DHT22;12832;52.392;13.066;2023-02-15T10:56:17;24.30;29.50
24730;DHT22;12832;52.392;13.066;2023-02-15T10:59:29;24.30;29.70
24730;DHT22;12832;52.392;13.066;2023-02-15T11:02:23;24.30;29.80
24730;DHT22;12832;52.392;13.066;2023-02-15T11:07:41;24.30;30.00
24730;DHT22;12832;52.392;13.066;2023-02-15T11:12:49;24.20;30.00
24730;DHT22;12832;52.392;13.066;2023-02-15T11:16:08;24.20;30.00
24730;DHT22;12832;52.392;13.066;2023-02-15T11:18:45;24.20;29.80
24730;DHT22;12832;52.392;13.066;2023-02-15T11:21:28;24.20;29.70
24730;DHT22;12832;52.392;13.066;2023-02-15T11:23:55;24.20;29.60
24730;DHT22;12832;52.392;13.066;2023-02-15T11:26:33;24.30;29.60
24730;DHT22;12832;52.392;13.066;2023-02-15T11:31:55;24.20;29.70
24730;DHT22;12832;52.392;13.066;2023-02-15T11:34:38;24.30;29.70
24730;DHT22;12832;52.392;13.066;2023-02-15T11:37:12;24.20;29.90
24730;DHT22;12832;52.392;13.066;2023-02-15T11:39:42;24.30;30.00
24730;DHT22;12832;52.392;13.066;2023-02-15T11:42:14;24.30;30.00
24730;DHT22;12832;52.392;13.066;2023-02-15T11:45:04;24.30;30.10
24730;DHT22;12832;52.392;13.066;2023-02-15T11:47:33;24.30;30.10
24730;DHT22;12832;52.392;13.066;2023-02-15T11:50:00;24.30;30.20
24730;DHT22;12832;52.392;13.066;2023-02-15T11:52:26;24.30;30.20
24730;DHT22;12832;52.392;13.066;2023-02-15T11:54:52;24.30;30.20
24730;DHT22;12832;52.392;13.066;2023-02-15T12:02:45;24.30;30.30
24730;DHT22;12832;52.392;13.066;2023-02-15T12:05:16;24.30;30.40
24730;DHT22;12832;52.392;13.066;2023-02-15T12:07:46;24.20;30.60
24730;DHT22;12832;52.392;13.066;2023-02-15T12:10:38;24.30;30.70
24730;DHT22;12832;52.392;13.066;2023-02-15T12:13:14;24.30;30.80
24730;DHT22;12832;52.392;13.066;2023-02-15T12:15:46;24.30;30.90
24730;DHT22;12832;52.392;13.066;2023-02-15T12:18:34;24.30;30.90
24730;DHT22;12832;52.392;13.066;2023-02-15T12:21:07;24.30;30.90
24730;DHT22;12832;52.392;13.066;2023-02-15T12:23:50;24.20;30.90
24730;DHT22;12832;52.392;13.066;2023-02-15T12:26:28;24.30;31.10
24730;DHT22;12832;52.392;13.066;2023-02-15T12:28:57;24.30;31.10
24730;DHT22;12832;52.392;13.066;2023-02-15T12:33:56;24.30;31.20
24730;DHT22;12832;52.392;13.066;2023-02-15T12:36:44;24.30;31.30
24730;DHT22;12832;52.392;13.066;2023-02-15T12:44:23;24.30;31.40
24730;DHT22;12832;52.392;13.066;2023-02-15T12:49:43;24.30;31.50
24730;DHT22;12832;52.392;13.066;2023-02-15T12:54:49;24.30;31.50
24730;DHT22;12832;52.392;13.066;2023-02-15T12:57:28;24.30;31.60
24730;DHT22;12832;52.392;13.066;2023-02-15T13:02:49;24.30;31.70
24730;DHT22;12832;52.392;13.066;2023-02-15T13:05:53;24.30;31.60
24730;DHT22;12832;52.392;13.066;2023-02-15T13:08:22;24.30;31.60
24730;DHT22;12832;52.392;13.066;2023-02-15T13:13:29;24.30;31.80
24730;DHT22;12832;52.392;13.066;2023-02-15T13:16:04;24.30;31.80
24730;DHT22;12832;52.392;13.066;2023-02-15T13:18:38;24.30;31.90
24730;DHT22;12832;52.392;13.066;2023-02-15T13:21:12;24.30;31.90
24730;DHT22;12832;52.392;13.066;2023-02-15T13:23:44;24.20;32.00
24730;DHT22;12832;52.392;13.066;2023-02-15T13:26:18;24.30;32.00
24730;DHT22;12832;52.392;13.066;2023-02-15T13:28:56;24.20;32.00
24730;DHT22;12832;52.392;13.066;2023-02-15T13:31:26;24.30;32.00
24730;DHT22;12832;52.392;13.066;2023-02-15T13:34:00;24.20;32.00
24730;DHT22;12832;52.392;13.066;2023-02-15T13:45:39;24.30;32.00
24730;DHT22;12832;52.392;13.066;2023-02-15T13:51:19;24.30;32.00
24730;DHT22;12832;52.392;13.066;2023-02-15T13:56:33;24.20;32.00
24730;DHT22;12832;52.392;13.066;2023-02-15T13:59:18;24.20;32.00
24730;DHT22;12832;52.392;13.066;2023-02-15T14:01:56;24.30;32.10
24730;DHT22;12832;52.392;13.066;2023-02-15T14:12:43;24.30;32.20
24730;DHT22;12832;52.392;13.066;2023-02-15T14:18:59;24.30;32.20
24730;DHT22;12832;52.392;13.066;2023-02-15T14:21:46;24.30;32.20
24730;DHT22;12832;52.392;13.066;2023-02-15T14:24:45;24.30;32.20
24730;DHT22;12832;52.392;13.066;2023-02-15T14:27:27;24.20;32.10
24730;DHT22;12832;52.392;13.066;2023-02-15T14:30:09;24.30;32.20
24730;DHT22;12832;52.392;13.066;2023-02-15T14:32:45;24.30;32.20
24730;DHT22;12832;52.392;13.066;2023-02-15T14:35:21;24.30;32.10
24730;DHT22;12832;52.392;13.066;2023-02-15T14:40:57;24.20;32.10
24730;DHT22;12832;52.392;13.066;2023-02-15T14:43:55;24.20;32.00
24730;DHT22;12832;52.392;13.066;2023-02-15T14:46:50;24.20;32.00
24730;DHT22;12832;52.392;13.066;2023-02-15T14:49:25;24.20;31.90
24730;DHT22;12832;52.392;13.066;2023-02-15T14:52:02;24.20;31.80
24730;DHT22;12832;52.392;13.066;2023-02-15T15:02:55;24.30;32.00
24730;DHT22;12832;52.392;13.066;2023-02-15T15:05:16;24.30;32.10
24730;DHT22;12832;52.392;13.066;2023-02-15T15:07:44;24.30;32.20
24730;DHT22;12832;52.392;13.066;2023-02-15T15:15:53;24.20;32.00
24730;DHT22;12832;52.392;13.066;2023-02-15T15:21:10;24.30;32.00
24730;DHT22;12832;52.392;13.066;2023-02-15T15:23:42;24.20;32.00
24730;DHT22;12832;52.392;13.066;2023-02-15T15:26:24;24.20;32.00
24730;DHT22;12832;52.392;13.066;2023-02-15T15:31:39;24.20;32.00
24730;DHT22;12832;52.392;13.066;2023-02-15T15:37:03;24.30;32.00
24730;DHT22;12832;52.392;13.066;2023-02-15T15:43:15;24.20;31.90
24730;DHT22;12832;52.392;13.066;2023-02-15T15:48:41;24.20;31.80
24730;DHT22;12832;52.392;13.066;2023-02-15T15:51:18;24.20;31.90
24730;DHT22;12832;52.392;13.066;2023-02-15T15:53:47;24.20;31.80
24730;DHT22;12832;52.392;13.066;2023-02-15T15:56:20;24.20;31.80
24730;DHT22;12832;52.392;13.066;2023-02-15T15:58:56;24.20;31.80
24730;DHT22;12832;52.392;13.066;2023-02-15T16:01:34;24.20;31.80
24730;DHT22;12832;52.392;13.066;2023-02-15T16:04:01;24.20;31.80
24730;DHT22;12832;52.392;13.066;2023-02-15T16:06:36;24.20;31.80
24730;DHT22;12832;52.392;13.066;2023-02-15T16:11:46;24.20;31.80
24730;DHT22;12832;52.392;13.066;2023-02-15T16:14:21;24.20;31.70
24730;DHT22;12832;52.392;13.066;2023-02-15T16:16:54;24.20;31.70
24730;DHT22;12832;52.392;13.066;2023-02-15T16:19:24;24.20;31.70
24730;DHT22;12832;52.392;13.066;2023-02-15T16:21:52;24.20;31.70
24730;DHT22;12832;52.392;13.066;2023-02-15T16:24:36;24.20;31.70
24730;DHT22;12832;52.392;13.066;2023-02-15T16:29:35;24.20;31.70
24730;DHT22;12832;52.392;13.066;2023-02-15T16:32:03;24.20;31.60
24730;DHT22;12832;52.392;13.066;2023-02-15T16:34:31;24.20;31.60
24730;DHT22;12832;52.392;13.066;2023-02-15T16:37:19;24.20;31.60
24730;DHT22;12832;52.392;13.066;2023-02-15T16:39:47;24.20;31.60
24730;DHT22;12832;52.392;13.066;2023-02-15T16:42:15;24.20;31.60
24730;DHT22;12832;52.392;13.066;2023-02-15T16:44:45;24.20;31.60
24730;DHT22;12832;52.392;13.066;2023-02-15T16:47:24;24.20;31.60
24730;DHT22;12832;52.392;13.066;2023-02-15T16:49:53;24.20;31.60
24730;DHT22;12832;52.392;13.066;2023-02-15T16:52:23;24.20;31.60
24730;DHT22;12832;52.392;13.066;2023-02-15T16:54:58;24.20;31.50
24730;DHT22;12832;52.392;13.066;2023-02-15T16:57:33;24.20;32.20
24730;DHT22;12832;52.392;13.066;2023-02-15T17:00:07;24.20;31.50
24730;DHT22;12832;52.392;13.066;2023-02-15T17:02:53;24.20;31.50
24730;DHT22;12832;52.392;13.066;2023-02-15T17:05:22;24.20;31.50
24730;DHT22;12832;52.392;13.066;2023-02-15T17:08:15;24.20;31.50
24730;DHT22;12832;52.392;13.066;2023-02-15T17:10:46;24.20;31.50
24730;DHT22;12832;52.392;13.066;2023-02-15T17:13:27;24.20;31.50
24730;DHT22;12832;52.392;13.066;2023-02-15T17:18:31;24.20;31.50
24730;DHT22;12832;52.392;13.066;2023-02-15T17:21:09;24.20;31.50
24730;DHT22;12832;52.392;13.066;2023-02-15T17:23:44;24.20;31.50
24730;DHT22;12832;52.392;13.066;2023-02-15T17:26:23;24.20;31.50
24730;DHT22;12832;52.392;13.066;2023-02-15T17:28:52;24.20;31.50
24730;DHT22;12832;52.392;13.066;2023-02-15T17:31:20;24.20;31.60
24730;DHT22;12832;52.392;13.066;2023-02-15T17:33:47;24.20;31.50
24730;DHT22;12832;52.392;13.066;2023-02-15T17:36:19;24.20;31.50
24730;DHT22;12832;52.392;13.066;2023-02-15T17:41:24;24.20;31.50
24730;DHT22;12832;52.392;13.066;2023-02-15T17:43:50;24.20;31.50
24730;DHT22;12832;52.392;13.066;2023-02-15T17:46:17;24.20;31.60
24730;DHT22;12832;52.392;13.066;2023-02-15T17:48:47;24.20;31.50
24730;DHT22;12832;52.392;13.066;2023-02-15T17:51:15;24.20;31.50
24730;DHT22;12832;52.392;13.066;2023-02-15T17:53:44;24.20;31.50
24730;DHT22;12832;52.392;13.066;2023-02-15T17:56:34;24.20;31.50
24730;DHT22;12832;52.392;13.066;2023-02-15T17:59:00;24.20;31.50
24730;DHT22;12832;52.392;13.066;2023-02-15T18:01:27;24.20;31.50
24730;DHT22;12832;52.392;13.066;2023-02-15T18:04:13;24.20;31.40
24730;DHT22;12832;52.392;13.066;2023-02-15T18:06:58;24.20;31.30
24730;DHT22;12832;52.392;13.066;2023-02-15T18:09:43;24.30;31.30
24730;DHT22;12832;52.392;13.066;2023-02-15T18:12:31;24.30;31.30
24730;DHT22;12832;52.392;13.066;2023-02-15T18:14:58;24.40;31.20
24730;DHT22;12832;52.392;13.066;2023-02-15T18:17:35;24.40;31.20
24730;DHT22;12832;52.392;13.066;2023-02-15T18:20:06;24.40;31.90
24730;DHT22;12832;52.392;13.066;2023-02-15T18:22:33;24.40;31.10
24730;DHT22;12832;52.392;13.066;2023-02-15T18:24:59;24.40;31.10
24730;DHT22;12832;52.392;13.066;2023-02-15T18:27:25;24.40;31.10
24730;DHT22;12832;52.392;13.066;2023-02-15T18:29:51;24.40;31.10
24730;DHT22;12832;52.392;13.066;2023-02-15T18:32:27;24.40;31.10
24730;DHT22;12832;52.392;13.066;2023-02-15T18:34:56;24.40;31.00